Lucky Trader — HOGJ — position and weather

sailwx.info

Track history (hours):
 
Tides and Currents Weather Stations Pressure Air Temp Water Temp Dewpoint Dewpoint Depression Visibility Wind Speed Wind Dir Waves Ship Positions

Lucky Trader

Last reported at 2017-Jan-03 12:32 UTC. Time now 2017-Jan-18 01:46 UTC.
Position N 36°41' E 000°24'.
Warning: this ship's position is 14 days out of date.

Length 154 m; draft 9.7 m.

Type: Cargo ship. MMSI: 374533000.

Date/timePositionNaut miles runAvg speedWind from/ knotsBaromVisibWave heightAir tempDewpointWater temp
2017-Jan-03 12:32N 36°41' E 000°24'1411.6
2017-Jan-03 11:22N 36°38' E 000°08'  
2017-Jan-01 06:25N 38°19' W 010°01'1110.3
2017-Jan-01 05:18N 38°30' W 010°03'810.5
2017-Jan-01 04:33N 38°38' W 010°05'1010.5
2017-Jan-01 03:33N 38°49' W 010°06'1010.3
2017-Jan-01 02:33N 38°59' W 010°03'1110.7
2017-Jan-01 01:33N 39°09' W 009°59'1310.8
2017-Jan-01 00:23N 39°21' W 009°55'1211.3
2016-Dec-31 23:22N 39°32' W 009°50'  
Track history (hours):
 
Tides and Currents Weather Stations Pressure Air Temp Water Temp Dewpoint Dewpoint Depression Visibility Wind Speed Wind Dir Waves Ship Positions

Lucky Trader

Last reported at 2017-Jan-03 12:32 UTC. Time now 2017-Jan-18 01:46 UTC.
Position N 36°41' E 000°24'.
Warning: this ship's position is 14 days out of date.

Length 154 m; draft 9.7 m.

Type: Cargo ship. MMSI: 374533000.

Date/timePositionNaut miles runAvg speedWind from/ knotsBaromVisibWave heightAir tempDewpointWater temp
2017-Jan-03 12:32N 36°41' E 000°24'1411.6
2017-Jan-03 11:22N 36°38' E 000°08'  
2017-Jan-01 06:25N 38°19' W 010°01'1110.3
2017-Jan-01 05:18N 38°30' W 010°03'810.5
2017-Jan-01 04:33N 38°38' W 010°05'1010.5
2017-Jan-01 03:33N 38°49' W 010°06'1010.3
2017-Jan-01 02:33N 38°59' W 010°03'1110.7
2017-Jan-01 01:33N 39°09' W 009°59'1310.8
2017-Jan-01 00:23N 39°21' W 009°55'1211.3
2016-Dec-31 23:22N 39°32' W 009°50'  

Dump ship's entire track history